Sault Sainte Marie, MI

6:47 AM EDT on July 30, 2015 (GMT -0400)
West End | | Change Station
CLOSE
Current Station
Personal Weather Station
Location: Saut Ste. Marie, ON
Elevation: 597 ft
Nearby Weather Stations

Elev 597 ft 46.52 °N, 84.36 °W | Updated 16 seconds ago

Clear
Clear
69.0 °F
Feels Like 69.0 °F
N
2.0
Wind Variable Wind from NNW
Gusts 10.0 mph

Today
High -- | Low -- °F
--% Chance of Precip.
Yesterday
High -- | Low -- °F
Precip. -- in
6:15 AM 9:11 PM
Waxing Gibbous, 99% visible
Pressure 29.75 in
Visibility 10.0 miles
Clouds Few 9500 ft
Dew Point 60 °F
Humidity 73%
Rainfall 0.00 in
Snow Depth Not available.
UV 0.0 out of 12
Pollen 5.20 out of 12
Air Quality Not available.
Flu Activity Not available.
METAR KCIU 301035Z AUTO 27007KT 10SM FEW095 18/14 A2975 RMK AO1

More Conditions Fewer Conditions

Pressure 29.75 in
Visibility 10.0 miles
Clouds Few 9500 ft
Dew Point 60 °F
Humidity 73%
Rainfall 0.00 in
Snow Depth Not available.
UV 0.0 out of 12
Pollen 5.20 out of 12
Air Quality Not available.
Flu Activity Not available.
METAR KCIU 301035Z AUTO 27007KT 10SM FEW095 18/14 A2975 RMK AO1

More Conditions Fewer Conditions

Nowcast | as of 5:00 am EDT on July 30, 2015

At 6 am...partly cloudy. Temperature 64. West winds 10 mph. At 8 am...partly cloudy. Temperature 63. West winds 12 mph. At 10 am...clear. Temperature 66. West winds 13 mph. At 12 PM...mostly cloudy. Temperature 70. West winds 16 mph with gusts to 30 mph.

×

10-Day Weather Forecast

×

Almanac

Astronomy

Jul. 30, 2015 Rise Set
Actual Time
Civil Twilight
Nautical Twilight
Astronomical Twilight
Moon
Length of Visible Light
Length of Day
Tomorrow will be .
, % of the Moon is Illuminated

Today's Extremes

State Highs State Lows

Community

WunderPhotos

Upload Photos

1,842,320 photos uploaded!

WunderBlogs® & News

Nearby

Air Quality

  Air Quality AQ Index Pollutant
Not available.

Snow Depth

Station Depth Elevation

Earthquake Activity

City Distance Mag. Time & Date
Minimum magnitude displayed is 2.5.

Coastal Water Temperatures

Place Temperature

Stations

Nearby Weather Stations

Station Location Temp. Windchill Dew Point Humidity Wind Precip. Elev Updated Type